createdAt,value
2017-04-03T14:17:59.309Z,9.27
2017-04-03T14:18:58.394Z,8.34
2017-04-03T14:19:56.774Z,9.38
2017-04-03T14:20:55.060Z,9.73
2017-04-03T14:21:53.460Z,10.07
2017-04-03T14:22:52.621Z,10.87
2017-04-03T14:23:51.011Z,9.62
2017-04-03T14:24:49.298Z,10.10
2017-04-03T14:25:47.610Z,10.78
2017-04-03T14:26:45.959Z,9.72
2017-04-03T14:27:45.087Z,9.10
2017-04-03T14:28:43.402Z,8.97
2017-04-03T14:29:41.810Z,8.48
2017-04-03T14:30:40.879Z,9.78
2017-04-03T14:31:39.255Z,9.95
2017-04-03T14:32:38.290Z,8.87
2017-04-03T14:33:37.369Z,9.82
2017-04-03T14:34:35.668Z,9.50
2017-04-03T14:35:34.754Z,9.38
2017-04-03T14:36:33.015Z,9.07
2017-04-03T14:37:32.085Z,9.08
2017-04-03T14:38:30.401Z,9.02
2017-04-03T14:39:28.671Z,9.58
2017-04-03T14:40:26.967Z,8.20
2017-04-03T14:41:25.282Z,8.73
2017-04-03T14:42:24.393Z,8.93
2017-04-03T14:43:22.677Z,10.53
2017-04-03T14:44:20.963Z,9.10
2017-04-03T14:45:19.251Z,9.55
2017-04-03T14:46:18.343Z,8.65
2017-04-03T14:47:17.397Z,8.38
2017-04-03T14:48:16.434Z,9.48
2017-04-03T14:49:14.714Z,8.93
2017-04-03T14:50:13.804Z,7.93
2017-04-03T14:51:12.081Z,8.27
2017-04-03T14:52:11.121Z,7.75
2017-04-03T14:53:09.385Z,7.77
2017-04-03T14:54:07.661Z,8.80
2017-04-03T14:55:06.701Z,8.28
2017-04-03T14:56:06.240Z,7.75
2017-04-03T14:57:04.600Z,8.77
2017-04-03T14:58:02.881Z,8.12
2017-04-03T14:59:01.239Z,9.47
2017-04-03T14:59:59.507Z,10.07
2017-04-03T15:00:57.850Z,10.12
2017-04-03T15:01:57.011Z,10.58
2017-04-03T15:02:56.130Z,10.47
2017-04-03T15:03:54.562Z,11.53
2017-04-03T15:04:53.650Z,11.27
2017-04-03T15:05:52.018Z,11.13
2017-04-03T15:06:51.050Z,11.52
2017-04-03T15:07:49.317Z,9.62
2017-04-03T15:08:48.370Z,9.97
2017-04-03T15:09:46.650Z,10.98
2017-04-03T15:10:45.743Z,10.78
2017-04-03T15:11:44.132Z,11.75
2017-04-03T15:12:43.307Z,10.72
2017-04-03T15:13:41.589Z,11.22
2017-04-03T15:14:39.930Z,11.33
2017-04-03T15:15:38.263Z,10.97
2017-04-03T15:16:37.383Z,9.42
2017-04-03T15:17:35.950Z,11.23
2017-04-03T15:18:34.381Z,10.47
2017-04-03T15:19:32.690Z,10.52
2017-04-03T15:20:31.030Z,11.35
2017-04-03T15:21:30.157Z,10.23
2017-04-03T15:22:28.482Z,10.05
2017-04-03T15:23:26.826Z,10.85
2017-04-03T15:24:26.008Z,9.67
2017-04-03T15:25:24.318Z,10.15
2017-04-03T15:26:22.853Z,10.33
2017-04-03T15:27:21.255Z,10.85
2017-04-03T15:28:19.586Z,9.80
2017-04-03T15:29:17.976Z,9.62
2017-04-03T15:30:16.371Z,8.83
2017-04-03T15:31:14.877Z,9.67
2017-04-03T15:32:13.209Z,8.40
2017-04-03T15:33:11.533Z,9.45
2017-04-03T15:34:09.870Z,7.58
2017-04-03T15:35:08.208Z,8.15
2017-04-03T15:36:06.509Z,8.87
2017-04-03T15:37:05.638Z,8.37
2017-04-03T15:38:04.791Z,9.47
2017-04-03T15:39:03.115Z,9.18
2017-04-03T15:40:02.160Z,10.08
2017-04-03T15:41:00.462Z,10.18
2017-04-03T15:41:58.750Z,10.53
2017-04-03T15:42:57.907Z,9.48
2017-04-03T15:43:56.205Z,9.10
2017-04-03T15:44:55.241Z,9.53
2017-04-03T15:45:53.574Z,10.28
2017-04-03T15:46:52.777Z,10.70
2017-04-03T15:47:51.858Z,9.17
2017-04-03T15:48:50.162Z,10.72
2017-04-03T15:49:48.583Z,11.15
2017-04-03T15:50:46.966Z,10.75
2017-04-03T15:51:45.290Z,10.03
2017-04-03T15:52:43.599Z,10.27
2017-04-03T15:53:42.665Z,10.58
2017-04-03T15:54:41.045Z,9.58
2017-04-03T15:55:39.363Z,10.77
2017-04-03T15:56:38.454Z,10.83
2017-04-03T15:57:36.730Z,9.33
2017-04-03T15:58:35.002Z,9.63
2017-04-03T15:59:33.279Z,9.35
2017-04-03T16:00:33.097Z,9.83
2017-04-03T16:01:31.463Z,10.77
2017-04-03T16:02:29.802Z,11.23
2017-04-03T16:03:28.077Z,10.25
2017-04-03T16:04:27.130Z,10.88
2017-04-03T16:05:25.406Z,9.83
2017-04-03T16:06:23.791Z,8.85
2017-04-03T16:07:22.931Z,10.85
2017-04-03T16:08:21.294Z,8.90
2017-04-03T16:09:19.804Z,9.92
2017-04-03T16:10:18.123Z,11.37
2017-04-03T16:11:17.306Z,9.92
2017-04-03T16:12:15.612Z,11.60
2017-04-03T16:13:13.881Z,10.82
2017-04-03T16:14:12.173Z,9.95
2017-04-03T16:15:10.470Z,9.63
2017-04-03T16:16:08.788Z,9.85
2017-04-03T16:17:07.238Z,10.53
2017-04-03T16:18:05.570Z,9.37
2017-04-03T16:19:03.858Z,9.47
2017-04-03T16:20:02.168Z,9.98
2017-04-03T16:21:01.220Z,10.72
2017-04-03T16:21:59.662Z,9.03
2017-04-03T16:22:58.863Z,9.10
2017-04-03T16:23:57.166Z,9.60
2017-04-03T16:24:55.448Z,10.10
2017-04-03T16:25:53.711Z,11.15
2017-04-03T16:26:52.083Z,10.70
2017-04-03T16:27:50.785Z,9.63
2017-04-03T16:28:49.913Z,9.25
2017-04-03T16:29:48.234Z,9.62
2017-04-03T16:30:47.369Z,10.20
2017-04-03T16:31:45.678Z,8.83
2017-04-03T16:32:44.002Z,9.85
2017-04-03T16:33:42.312Z,9.43
2017-04-03T16:34:40.590Z,9.50
2017-04-03T16:35:39.654Z,9.55
2017-04-03T16:36:37.995Z,10.22
2017-04-03T16:37:36.309Z,9.67
2017-04-03T16:38:34.586Z,9.77
2017-04-03T16:39:33.636Z,8.95
2017-04-03T16:40:31.952Z,9.92
2017-04-03T16:41:30.370Z,10.07
2017-04-03T16:42:28.645Z,8.90
2017-04-03T16:43:26.950Z,9.13
2017-04-03T16:44:26.063Z,9.63
2017-04-03T16:45:24.812Z,9.82
2017-04-03T16:46:23.116Z,9.05
2017-04-03T16:47:22.439Z,9.33
2017-04-03T16:48:20.719Z,9.05
2017-04-03T16:49:19.926Z,9.18
2017-04-03T16:50:18.211Z,10.33
2017-04-03T16:51:16.502Z,9.92
2017-04-03T16:52:15.578Z,10.15
2017-04-03T16:53:13.966Z,10.88
2017-04-03T16:54:12.239Z,9.83
2017-04-03T16:55:10.552Z,9.28
2017-04-03T16:56:08.850Z,8.83
2017-04-03T16:57:07.126Z,10.35
2017-04-03T16:58:06.221Z,10.33
2017-04-03T16:59:04.508Z,9.65
2017-04-03T17:00:02.849Z,9.90
2017-04-03T17:01:01.197Z,10.63
2017-04-03T17:01:59.504Z,10.67
2017-04-03T17:02:57.810Z,10.23
2017-04-03T17:03:56.284Z,10.02
2017-04-03T17:04:54.573Z,8.53
2017-04-03T17:05:52.854Z,11.15
2017-04-03T17:06:51.134Z,9.75
2017-04-03T17:07:49.475Z,9.18
2017-04-03T17:08:47.749Z,9.33
2017-04-03T17:09:46.112Z,10.10
2017-04-03T17:10:44.457Z,8.98
2017-04-03T17:11:43.525Z,9.38
2017-04-03T17:12:41.844Z,9.18
2017-04-03T17:13:40.122Z,10.77
2017-04-03T17:14:38.480Z,9.52
2017-04-03T17:15:36.763Z,8.68
2017-04-03T17:16:35.036Z,9.65
2017-04-03T17:17:33.326Z,9.37
2017-04-03T17:18:31.619Z,9.80
2017-04-03T17:19:29.912Z,9.92
2017-04-03T17:20:29.020Z,9.47
2017-04-03T17:21:27.315Z,9.38
2017-04-03T17:22:25.583Z,10.00
2017-04-03T17:23:23.868Z,9.70
2017-04-03T17:24:22.907Z,8.32
2017-04-03T17:25:21.211Z,9.85
2017-04-03T17:26:19.588Z,10.25
2017-04-03T17:27:18.659Z,9.30
2017-04-03T17:28:17.053Z,8.87
2017-04-03T17:29:15.327Z,10.43
2017-04-03T17:30:13.635Z,10.92
2017-04-03T17:31:11.902Z,9.28
2017-04-03T17:32:10.264Z,9.12
2017-04-03T17:33:08.550Z,8.98
2017-04-03T17:34:06.868Z,8.38
2017-04-03T17:35:05.231Z,9.70
2017-04-03T17:36:03.585Z,10.30
2017-04-03T17:37:01.870Z,8.42
2017-04-03T17:38:00.174Z,9.48
2017-04-03T17:38:58.503Z,10.03
2017-04-03T17:39:56.822Z,9.35
2017-04-03T17:40:55.119Z,8.45
2017-04-03T17:41:53.523Z,10.22
2017-04-03T17:42:51.808Z,10.45
2017-04-03T17:43:50.132Z,9.57
2017-04-03T17:44:48.428Z,7.98
2017-04-03T17:45:46.718Z,9.10
2017-04-03T17:46:45.058Z,8.85
2017-04-03T17:47:44.119Z,7.40
2017-04-03T17:48:42.431Z,7.85
2017-04-03T17:49:41.588Z,9.02
2017-04-03T17:50:39.913Z,9.07
2017-04-03T17:51:38.271Z,8.85
2017-04-03T17:52:36.587Z,9.12
2017-04-03T17:53:34.953Z,8.95
2017-04-03T17:54:33.245Z,9.15
2017-04-03T17:55:31.566Z,8.10
2017-04-03T17:56:29.845Z,9.10
2017-04-03T17:57:28.149Z,9.55
2017-04-03T17:58:26.516Z,8.32
2017-04-03T17:59:24.830Z,10.48
2017-04-03T18:00:24.014Z,8.67
2017-04-03T18:01:23.091Z,8.10
2017-04-03T18:02:22.242Z,9.10
2017-04-03T18:03:20.710Z,8.30
2017-04-03T18:04:19.032Z,9.30
2017-04-03T18:05:17.356Z,8.93
2017-04-03T18:06:15.690Z,9.83
2017-04-03T18:07:13.974Z,9.38
2017-04-03T18:08:12.287Z,8.63
2017-04-03T18:09:10.806Z,8.32
2017-04-03T18:10:09.139Z,9.33
2017-04-03T18:11:07.445Z,10.30
2017-04-03T18:12:05.734Z,10.13
2017-04-03T18:13:04.624Z,10.32
2017-04-03T18:14:03.695Z,9.58
2017-04-03T18:15:02.560Z,9.13
2017-04-03T18:16:01.556Z,10.25
2017-04-03T18:17:00.252Z,9.22
2017-04-03T18:17:59.626Z,9.93
2017-04-03T18:18:58.663Z,9.17
2017-04-03T18:19:56.954Z,9.80
2017-04-03T18:20:55.323Z,9.97
2017-04-03T18:21:53.656Z,9.38
2017-04-03T18:22:51.915Z,9.07
2017-04-03T18:23:50.190Z,8.88
2017-04-03T18:24:48.464Z,9.48
2017-04-03T18:25:46.787Z,9.70
2017-04-03T18:26:45.156Z,10.42
2017-04-03T18:27:43.530Z,10.28
2017-04-03T18:28:41.882Z,9.30
2017-04-03T18:29:40.198Z,9.35
2017-04-03T18:30:38.515Z,9.52
2017-04-03T18:31:36.827Z,10.45
2017-04-03T18:32:35.216Z,9.35
2017-04-03T18:33:33.518Z,9.13
2017-04-03T18:34:31.808Z,9.38
2017-04-03T18:35:30.095Z,9.13
2017-04-03T18:36:28.375Z,9.08
2017-04-03T18:37:26.668Z,10.30
2017-04-03T18:38:25.065Z,9.90
2017-04-03T18:39:23.371Z,10.55
2017-04-03T18:40:21.686Z,9.73
2017-04-03T18:41:19.966Z,9.48
2017-04-03T18:42:19.041Z,9.03
2017-04-03T18:43:18.146Z,10.13
2017-04-03T18:44:16.524Z,9.73
2017-04-03T18:45:15.627Z,9.73
2017-04-03T18:46:14.665Z,11.15
2017-04-03T18:47:13.154Z,11.15
2017-04-03T18:48:12.253Z,9.75
2017-04-03T18:49:10.549Z,8.73
2017-04-03T18:50:08.982Z,9.23
2017-04-03T18:51:07.461Z,10.12
2017-04-03T18:52:05.743Z,10.13
2017-04-03T18:53:04.828Z,9.08
2017-04-03T18:54:04.106Z,9.30
2017-04-03T18:55:03.177Z,10.03
2017-04-03T18:56:02.334Z,9.25
2017-04-03T18:57:01.406Z,9.27
2017-04-03T18:58:00.453Z,9.93
2017-04-03T18:58:59.486Z,9.75
2017-04-03T18:59:57.825Z,8.88
2017-04-03T19:00:56.182Z,9.33
2017-04-03T19:01:54.554Z,9.28
2017-04-03T19:02:52.885Z,9.70
2017-04-03T19:03:51.183Z,9.67
2017-04-03T19:04:49.455Z,9.57
2017-04-03T19:05:47.851Z,8.80
2017-04-03T19:06:46.162Z,9.12
2017-04-03T19:07:44.534Z,9.88
2017-04-03T19:08:42.841Z,10.02
2017-04-03T19:09:41.941Z,9.73
2017-04-03T19:10:40.338Z,10.33
2017-04-03T19:11:38.673Z,10.28
2017-04-03T19:12:36.974Z,10.10
2017-04-03T19:13:35.388Z,9.75
2017-04-03T19:14:33.844Z,10.97
2017-04-03T19:15:32.194Z,9.27
2017-04-03T19:16:31.287Z,9.07
2017-04-03T19:17:30.402Z,9.13
2017-04-03T19:18:29.503Z,9.85
2017-04-03T19:19:27.850Z,10.52
2017-04-03T19:20:26.205Z,10.95
2017-04-03T19:21:24.496Z,10.13
2017-04-03T19:22:22.772Z,10.75
2017-04-03T19:23:21.212Z,10.68
2017-04-03T19:24:19.550Z,10.05
2017-04-03T19:25:17.951Z,9.75
2017-04-03T19:26:16.252Z,11.52
2017-04-03T19:27:14.646Z,10.45
2017-04-03T19:28:12.936Z,10.53
2017-04-03T19:29:11.981Z,10.78
2017-04-03T19:30:10.326Z,11.42
2017-04-03T19:31:09.594Z,10.62
2017-04-03T19:32:08.675Z,11.83
2017-04-03T19:33:07.750Z,9.82
2017-04-03T19:34:07.017Z,9.15
2017-04-03T19:35:05.342Z,10.27
2017-04-03T19:36:04.401Z,10.62
2017-04-03T19:37:02.982Z,12.12
2017-04-03T19:38:01.529Z,11.63
2017-04-03T19:38:59.891Z,10.93
2017-04-03T19:39:59.242Z,10.62
2017-04-03T19:40:57.593Z,11.12
2017-04-03T19:41:55.919Z,12.10
2017-04-03T19:42:55.087Z,11.08
2017-04-03T19:43:53.390Z,12.43
2017-04-03T19:44:52.568Z,11.50
2017-04-03T19:45:50.882Z,11.00
2017-04-03T19:46:49.162Z,11.07
2017-04-03T19:47:47.501Z,11.15
2017-04-03T19:48:45.891Z,12.73
2017-04-03T19:49:44.193Z,10.10
2017-04-03T19:50:43.398Z,12.72
2017-04-03T19:51:41.767Z,12.33
2017-04-03T19:52:40.096Z,10.43
2017-04-03T19:53:39.142Z,12.20
2017-04-03T19:54:38.303Z,10.57
2017-04-03T19:55:36.593Z,11.60
2017-04-03T19:56:34.884Z,10.47
2017-04-03T19:57:33.947Z,11.90
2017-04-03T19:58:33.001Z,11.30
2017-04-03T19:59:31.321Z,11.77
2017-04-03T20:00:30.470Z,12.58
2017-04-03T20:01:28.747Z,11.48
2017-04-03T20:02:27.813Z,11.17
2017-04-03T20:03:26.911Z,12.92
2017-04-03T20:04:25.280Z,10.45
2017-04-03T20:05:23.655Z,11.28
2017-04-03T20:06:22.039Z,11.85
2017-04-03T20:07:20.326Z,11.65
2017-04-03T20:08:18.646Z,11.38
2017-04-03T20:09:17.987Z,11.45
2017-04-03T20:10:17.005Z,11.82
2017-04-03T20:11:16.099Z,12.50
2017-04-03T20:12:14.503Z,10.60
2017-04-03T20:13:12.814Z,12.32
2017-04-03T20:14:11.198Z,12.53
2017-04-03T20:15:10.292Z,9.10
2017-04-03T20:16:08.651Z,11.90
2017-04-03T20:17:07.034Z,11.68
2017-04-03T20:18:05.554Z,12.63
2017-04-03T20:19:03.864Z,12.33
2017-04-03T20:20:02.255Z,11.03
2017-04-03T20:21:01.435Z,13.03
2017-04-03T20:21:59.763Z,12.85
2017-04-03T20:22:58.319Z,12.07
2017-04-03T20:23:57.552Z,13.23
2017-04-03T20:24:56.667Z,12.17
2017-04-03T20:25:55.757Z,11.10
2017-04-03T20:26:54.215Z,11.55
2017-04-03T20:27:52.708Z,11.87
2017-04-03T20:28:51.927Z,11.73
2017-04-03T20:29:50.547Z,12.63
2017-04-03T20:30:49.718Z,12.57
2017-04-03T20:31:48.231Z,12.48
2017-04-03T20:32:46.651Z,11.85
2017-04-03T20:33:45.068Z,12.87
2017-04-03T20:34:43.510Z,13.57
2017-04-03T20:35:42.745Z,11.85
2017-04-03T20:36:41.824Z,12.22
2017-04-03T20:37:40.250Z,13.22
2017-04-03T20:38:39.409Z,12.68
2017-04-03T20:39:38.557Z,12.73
2017-04-03T20:40:36.924Z,11.95
2017-04-03T20:41:35.335Z,14.30
2017-04-03T20:42:33.824Z,13.33
2017-04-03T20:43:32.930Z,11.58
2017-04-03T20:44:32.049Z,13.27
2017-04-03T20:45:30.411Z,12.40
2017-04-03T20:46:28.709Z,13.90
2017-04-03T20:47:27.895Z,13.23
2017-04-03T20:48:26.257Z,13.10
2017-04-03T20:49:25.372Z,13.72
2017-04-03T20:50:23.675Z,11.82
2017-04-03T20:51:22.770Z,12.55
2017-04-03T20:52:21.058Z,12.28
2017-04-03T20:53:20.204Z,13.43
2017-04-03T20:54:18.491Z,12.80
2017-04-03T20:55:16.812Z,11.40
2017-04-03T20:56:15.158Z,12.27
2017-04-03T20:57:13.458Z,13.13
2017-04-03T20:58:11.747Z,13.58
2017-04-03T20:59:10.167Z,13.72
2017-04-03T21:00:08.564Z,12.23
2017-04-03T21:01:06.898Z,13.23
2017-04-03T21:02:05.271Z,13.65
2017-04-03T21:03:03.777Z,14.22
2017-04-03T21:04:02.097Z,13.20
2017-04-03T21:05:00.439Z,13.43
2017-04-03T21:05:58.732Z,13.38
2017-04-03T21:06:57.020Z,13.17
2017-04-03T21:07:55.435Z,13.05
2017-04-03T21:08:53.717Z,14.43
2017-04-03T21:09:52.286Z,16.22
2017-04-03T21:10:51.430Z,14.70
2017-04-03T21:11:49.779Z,13.15
2017-04-03T21:12:48.063Z,14.40
2017-04-03T21:13:46.382Z,14.35
2017-04-03T21:14:45.463Z,15.02
2017-04-03T21:15:43.781Z,13.00
2017-04-03T21:16:42.212Z,14.73
2017-04-03T21:17:40.462Z,14.12
2017-04-03T21:18:38.827Z,15.38
2017-04-03T21:19:37.924Z,15.05
2017-04-03T21:20:36.245Z,15.05
2017-04-03T21:21:34.536Z,13.80
2017-04-03T21:22:32.981Z,14.53
2017-04-03T21:23:31.561Z,14.90
2017-04-03T21:24:29.945Z,14.90
2017-04-03T21:25:28.242Z,14.43
2017-04-03T21:26:26.629Z,15.23
2017-04-03T21:27:24.918Z,14.08
2017-04-03T21:28:23.726Z,14.77
2017-04-03T21:29:22.005Z,14.75
2017-04-03T21:30:20.298Z,14.82
2017-04-03T21:31:18.611Z,15.30
2017-04-03T21:32:16.903Z,14.38
2017-04-03T21:33:15.411Z,15.52
2017-04-03T21:34:13.867Z,14.33
2017-04-03T21:35:13.033Z,14.10
2017-04-03T21:36:11.383Z,13.82
2017-04-03T21:37:09.926Z,15.50
2017-04-03T21:38:08.239Z,15.32
2017-04-03T21:39:06.601Z,15.03
2017-04-03T21:40:05.265Z,14.97
2017-04-03T21:41:03.570Z,14.82
2017-04-03T21:42:01.882Z,18.30
2017-04-03T21:43:00.311Z,15.60
2017-04-03T21:43:58.576Z,16.60
2017-04-03T21:44:56.844Z,18.37
2017-04-03T21:45:55.254Z,16.45
2017-04-03T21:46:54.751Z,15.47
2017-04-03T21:47:53.034Z,16.05
2017-04-03T21:48:51.307Z,15.07
2017-04-03T21:49:49.591Z,14.00
2017-04-03T21:50:47.897Z,15.43
2017-04-03T21:51:46.239Z,15.45
2017-04-03T21:52:45.276Z,13.53
2017-04-03T21:53:44.287Z,14.75
2017-04-03T21:54:42.555Z,14.98
2017-04-03T21:55:41.586Z,14.90
2017-04-03T21:56:39.941Z,14.73
2017-04-03T21:57:38.273Z,14.67
2017-04-03T21:58:36.552Z,16.33
2017-04-03T21:59:34.827Z,15.52
2017-04-03T22:00:33.362Z,15.35
2017-04-03T22:01:31.628Z,15.28
2017-04-03T22:02:29.935Z,16.62
2017-04-03T22:03:28.301Z,16.08
2017-04-03T22:04:26.553Z,14.83
2017-04-03T22:05:24.834Z,15.43
2017-04-03T22:06:23.134Z,15.88
2017-04-03T22:07:21.397Z,16.67
2017-04-03T22:08:19.668Z,15.08
2017-04-03T22:09:18.038Z,14.10
2017-04-03T22:10:16.350Z,15.10
2017-04-03T22:11:14.622Z,13.52
2017-04-03T22:12:12.962Z,16.37
2017-04-03T22:13:11.258Z,15.87
2017-04-03T22:14:09.527Z,16.22
2017-04-03T22:15:07.895Z,16.23
2017-04-03T22:16:06.161Z,16.75
2017-04-03T22:17:04.424Z,14.42
2017-04-03T22:18:02.706Z,15.37
2017-04-03T22:19:00.965Z,13.82
2017-04-03T22:19:59.202Z,15.85
2017-04-03T22:20:57.547Z,14.93
2017-04-03T22:21:55.814Z,16.58
2017-04-03T22:22:54.094Z,16.67
2017-04-03T22:23:52.350Z,15.68
2017-04-03T22:24:50.636Z,13.53
2017-04-03T22:25:54.488Z,14.48
2017-04-03T22:26:52.814Z,14.67
2017-04-03T22:27:51.067Z,15.37
2017-04-03T22:28:49.323Z,16.03
2017-04-03T22:29:47.628Z,17.40
2017-04-03T22:30:45.923Z,16.75
2017-04-03T22:31:44.179Z,17.80
2017-04-03T22:32:42.519Z,17.58
2017-04-03T22:33:40.786Z,17.53
2017-04-03T22:34:39.044Z,14.25
2017-04-03T22:35:38.077Z,14.97
2017-04-03T22:36:36.371Z,15.78
2017-04-03T22:37:34.698Z,15.20
2017-04-03T22:38:33.068Z,16.72
2017-04-03T22:39:31.532Z,15.73
2017-04-03T22:40:29.794Z,15.80
2017-04-03T22:41:28.043Z,17.78
2017-04-03T22:42:26.307Z,17.57
2017-04-03T22:43:24.642Z,16.53
2017-04-03T22:44:23.011Z,15.93
2017-04-03T22:45:21.295Z,17.55
2017-04-03T22:46:19.647Z,16.08
2017-04-03T22:47:17.913Z,14.45
2017-04-03T22:48:16.158Z,16.17
2017-04-03T22:49:14.403Z,17.60
2017-04-03T22:50:13.532Z,16.33
2017-04-03T22:51:11.788Z,16.18
2017-04-03T22:52:10.093Z,17.03
2017-04-03T22:53:08.418Z,16.33
2017-04-03T22:54:06.746Z,15.87
2017-04-03T22:55:05.016Z,16.80
2017-04-03T22:56:04.131Z,15.50
2017-04-03T22:57:02.390Z,15.98
2017-04-03T22:58:00.663Z,16.63
2017-04-03T22:58:58.942Z,16.80
2017-04-03T22:59:57.221Z,14.45
2017-04-03T23:00:56.246Z,15.50
2017-04-03T23:01:54.598Z,14.37
2017-04-03T23:02:53.623Z,16.68
2017-04-03T23:03:51.872Z,14.45
2017-04-03T23:04:50.133Z,15.55
2017-04-03T23:05:49.165Z,17.68
2017-04-03T23:06:47.544Z,17.20
2017-04-03T23:07:45.866Z,15.80
2017-04-03T23:08:44.156Z,17.67
2017-04-03T23:09:42.395Z,19.20
2017-04-03T23:10:40.662Z,18.90
2017-04-03T23:11:38.905Z,16.67
2017-04-03T23:12:37.914Z,19.13
2017-04-03T23:13:36.267Z,15.98
2017-04-03T23:14:34.561Z,16.32
2017-04-03T23:15:32.824Z,18.22
2017-04-03T23:16:31.862Z,17.23
2017-04-03T23:17:30.867Z,19.25
2017-04-03T23:18:29.121Z,19.40
2017-04-03T23:19:27.560Z,18.15
2017-04-03T23:20:25.904Z,16.68
2017-04-03T23:21:24.177Z,16.40
2017-04-03T23:22:22.466Z,14.88
2017-04-03T23:23:21.504Z,19.02
2017-04-03T23:24:19.768Z,19.45
2017-04-03T23:25:18.125Z,17.15
2017-04-03T23:26:16.434Z,16.62
2017-04-03T23:27:14.734Z,16.32
2017-04-03T23:28:13.041Z,19.70
2017-04-03T23:29:11.310Z,16.65
2017-04-03T23:30:09.587Z,17.25
2017-04-03T23:31:07.903Z,17.45
2017-04-03T23:32:06.165Z,18.07
2017-04-03T23:33:04.434Z,16.25
2017-04-03T23:34:02.708Z,16.08
2017-04-03T23:35:01.750Z,15.77
2017-04-03T23:36:00.054Z,14.90
2017-04-03T23:36:58.522Z,18.23
2017-04-03T23:37:57.544Z,19.17
2017-04-03T23:38:55.829Z,20.08
2017-04-03T23:39:54.077Z,17.85
2017-04-03T23:40:52.324Z,19.63
2017-04-03T23:41:50.619Z,18.47
2017-04-03T23:42:49.731Z,18.45
2017-04-03T23:43:48.106Z,16.88
2017-04-03T23:44:46.347Z,17.78
2017-04-03T23:45:45.402Z,17.78
2017-04-03T23:46:43.650Z,20.23
2017-04-03T23:47:41.926Z,17.25
2017-04-03T23:48:40.294Z,18.90
2017-04-03T23:49:38.541Z,18.50
2017-04-03T23:50:36.786Z,19.17
2017-04-03T23:51:35.061Z,18.38
2017-04-03T23:52:33.323Z,17.95
2017-04-03T23:53:31.619Z,18.98
2017-04-03T23:54:29.978Z,18.52
2017-04-03T23:55:28.217Z,20.10
2017-04-03T23:56:26.505Z,18.95
2017-04-03T23:57:24.759Z,19.90
2017-04-03T23:58:23.039Z,19.93
2017-04-03T23:59:21.362Z,19.77
